Terminal Aerodrome Forecast
Issued by NWS Wilmington, OH

Home | Current Version | Previous Version | Text Only | Print | Product List | Glossary On
Versions: 1 2 3 4 5 6 7 8 9 10 11 12 13 14 15 16 17 18 19 20 21 22 23 24 25 26 27 28 29
833
FTUS41 KILN 240857 AAA
TAFCVG
TAF AMD
KCVG 240857Z 2409/2512 04008KT P6SM VCSH BKN008 OVC013
      TEMPO 2410/2412 5SM -RA SCT008 SCT013 OVC025
     FM241200 06011KT P6SM VCSH OVC012
      TEMPO 2414/2418 4SM -RA BR SCT012 OVC025
     FM242000 09011KT P6SM VCSH OVC022
     FM250000 15012KT 5SM -RA OVC025
     FM250300 17017G26KT 5SM SHRA OVC040
      TEMPO 2506/2509 23017G26KT 4SM -TSRA SCT020 OVC030CB
     FM250900 25016G25KT P6SM VCTS SCT015 OVC030CB=

USA.gov is the U.S. government's official web portal to all federal, state and local government web resources and services.